sensor_id;sensor_type;location;lat;lon;timestamp;P1;durP1;ratioP1;P2;durP2;ratioP2
48534;SDS011;34323;52.022;5.686;2023-02-17T00:01:56;25.42;;;14.77;;
48534;SDS011;34323;52.022;5.686;2023-02-17T00:04:21;24.38;;;15.40;;
48534;SDS011;34323;52.022;5.686;2023-02-17T00:06:47;22.85;;;14.55;;
48534;SDS011;34323;52.022;5.686;2023-02-17T00:09:13;25.27;;;14.32;;
48534;SDS011;34323;52.022;5.686;2023-02-17T00:11:39;22.20;;;14.18;;
48534;SDS011;34323;52.022;5.686;2023-02-17T00:14:04;28.08;;;15.77;;
48534;SDS011;34323;52.022;5.686;2023-02-17T00:16:30;23.80;;;14.30;;
48534;SDS011;34323;52.022;5.686;2023-02-17T00:18:57;22.85;;;14.18;;
48534;SDS011;34323;52.022;5.686;2023-02-17T00:21:25;25.05;;;14.90;;
48534;SDS011;34323;52.022;5.686;2023-02-17T00:23:53;23.48;;;14.77;;
48534;SDS011;34323;52.022;5.686;2023-02-17T00:26:20;23.00;;;15.15;;
48534;SDS011;34323;52.022;5.686;2023-02-17T00:28:46;23.88;;;14.75;;
48534;SDS011;34323;52.022;5.686;2023-02-17T00:31:13;18.63;;;12.32;;
48534;SDS011;34323;52.022;5.686;2023-02-17T00:33:44;17.23;;;10.43;;
48534;SDS011;34323;52.022;5.686;2023-02-17T00:36:11;22.10;;;14.07;;
48534;SDS011;34323;52.022;5.686;2023-02-17T00:38:41;24.75;;;14.05;;
48534;SDS011;34323;52.022;5.686;2023-02-17T00:41:07;22.23;;;14.15;;
48534;SDS011;34323;52.022;5.686;2023-02-17T00:43:33;20.70;;;13.85;;
48534;SDS011;34323;52.022;5.686;2023-02-17T00:45:58;22.13;;;14.13;;
48534;SDS011;34323;52.022;5.686;2023-02-17T00:48:27;21.20;;;13.18;;
48534;SDS011;34323;52.022;5.686;2023-02-17T00:50:52;21.77;;;14.18;;
48534;SDS011;34323;52.022;5.686;2023-02-17T00:53:18;28.35;;;14.13;;
48534;SDS011;34323;52.022;5.686;2023-02-17T00:55:43;24.40;;;13.43;;
48534;SDS011;34323;52.022;5.686;2023-02-17T00:58:09;18.92;;;12.88;;
48534;SDS011;34323;52.022;5.686;2023-02-17T01:00:35;20.30;;;12.70;;
48534;SDS011;34323;52.022;5.686;2023-02-17T01:03:00;20.45;;;13.05;;
48534;SDS011;34323;52.022;5.686;2023-02-17T01:05:26;20.45;;;12.77;;
48534;SDS011;34323;52.022;5.686;2023-02-17T01:07:52;20.17;;;12.25;;
48534;SDS011;34323;52.022;5.686;2023-02-17T01:10:17;22.15;;;13.90;;
48534;SDS011;34323;52.022;5.686;2023-02-17T01:12:43;20.15;;;13.30;;
48534;SDS011;34323;52.022;5.686;2023-02-17T01:15:09;21.52;;;13.35;;
48534;SDS011;34323;52.022;5.686;2023-02-17T01:17:35;26.80;;;13.70;;
48534;SDS011;34323;52.022;5.686;2023-02-17T01:20:00;21.55;;;13.52;;
48534;SDS011;34323;52.022;5.686;2023-02-17T01:22:26;26.35;;;15.63;;
48534;SDS011;34323;52.022;5.686;2023-02-17T01:24:51;27.50;;;14.18;;
48534;SDS011;34323;52.022;5.686;2023-02-17T01:27:17;24.80;;;14.82;;
48534;SDS011;34323;52.022;5.686;2023-02-17T01:29:43;24.48;;;13.73;;
48534;SDS011;34323;52.022;5.686;2023-02-17T01:32:09;25.60;;;16.13;;
48534;SDS011;34323;52.022;5.686;2023-02-17T01:34:36;27.30;;;14.82;;
48534;SDS011;34323;52.022;5.686;2023-02-17T01:37:02;30.23;;;16.88;;
48534;SDS011;34323;52.022;5.686;2023-02-17T01:39:28;28.63;;;17.15;;
48534;SDS011;34323;52.022;5.686;2023-02-17T01:41:54;30.33;;;16.92;;
48534;SDS011;34323;52.022;5.686;2023-02-17T01:44:21;27.13;;;15.98;;
48534;SDS011;34323;52.022;5.686;2023-02-17T01:46:52;28.40;;;16.75;;
48534;SDS011;34323;52.022;5.686;2023-02-17T01:52:16;30.65;;;17.10;;
48534;SDS011;34323;52.022;5.686;2023-02-17T01:54:48;27.13;;;16.33;;
48534;SDS011;34323;52.022;5.686;2023-02-17T01:57:22;30.90;;;17.15;;
48534;SDS011;34323;52.022;5.686;2023-02-17T01:59:51;33.53;;;16.73;;
48534;SDS011;34323;52.022;5.686;2023-02-17T02:02:17;29.50;;;17.02;;
48534;SDS011;34323;52.022;5.686;2023-02-17T02:04:44;32.58;;;16.50;;
48534;SDS011;34323;52.022;5.686;2023-02-17T02:07:13;31.27;;;17.85;;
48534;SDS011;34323;52.022;5.686;2023-02-17T02:09:45;31.45;;;17.45;;
48534;SDS011;34323;52.022;5.686;2023-02-17T02:12:21;28.02;;;17.40;;
48534;SDS011;34323;52.022;5.686;2023-02-17T02:14:49;35.58;;;18.42;;
48534;SDS011;34323;52.022;5.686;2023-02-17T02:23:39;31.95;;;18.85;;
48534;SDS011;34323;52.022;5.686;2023-02-17T02:32:22;30.80;;;16.35;;
48534;SDS011;34323;52.022;5.686;2023-02-17T02:35:00;29.70;;;17.27;;
48534;SDS011;34323;52.022;5.686;2023-02-17T02:37:42;31.15;;;17.08;;
48534;SDS011;34323;52.022;5.686;2023-02-17T02:40:16;31.70;;;16.10;;
48534;SDS011;34323;52.022;5.686;2023-02-17T02:42:45;32.28;;;17.92;;
48534;SDS011;34323;52.022;5.686;2023-02-17T02:45:11;31.05;;;16.92;;
48534;SDS011;34323;52.022;5.686;2023-02-17T02:50:10;33.53;;;18.05;;
48534;SDS011;34323;52.022;5.686;2023-02-17T02:53:07;30.63;;;16.52;;
48534;SDS011;34323;52.022;5.686;2023-02-17T03:03:54;29.20;;;16.20;;
48534;SDS011;34323;52.022;5.686;2023-02-17T03:06:26;28.63;;;15.32;;
48534;SDS011;34323;52.022;5.686;2023-02-17T03:09:08;28.17;;;15.15;;
48534;SDS011;34323;52.022;5.686;2023-02-17T03:11:39;29.65;;;14.55;;
48534;SDS011;34323;52.022;5.686;2023-02-17T03:14:10;25.35;;;14.30;;
48534;SDS011;34323;52.022;5.686;2023-02-17T03:16:38;31.17;;;15.57;;
48534;SDS011;34323;52.022;5.686;2023-02-17T03:19:06;25.35;;;14.18;;
48534;SDS011;34323;52.022;5.686;2023-02-17T03:21:34;27.15;;;15.30;;
48534;SDS011;34323;52.022;5.686;2023-02-17T03:24:03;26.08;;;14.38;;
48534;SDS011;34323;52.022;5.686;2023-02-17T03:26:29;25.15;;;14.30;;
48534;SDS011;34323;52.022;5.686;2023-02-17T03:28:54;23.17;;;12.68;;
48534;SDS011;34323;52.022;5.686;2023-02-17T03:31:20;22.90;;;13.35;;
48534;SDS011;34323;52.022;5.686;2023-02-17T03:33:45;21.38;;;12.40;;
48534;SDS011;34323;52.022;5.686;2023-02-17T03:36:11;25.63;;;12.77;;
48534;SDS011;34323;52.022;5.686;2023-02-17T03:38:36;22.15;;;12.57;;
48534;SDS011;34323;52.022;5.686;2023-02-17T03:41:02;21.42;;;11.90;;
48534;SDS011;34323;52.022;5.686;2023-02-17T03:43:28;27.48;;;14.20;;
48534;SDS011;34323;52.022;5.686;2023-02-17T03:45:53;23.67;;;12.68;;
48534;SDS011;34323;52.022;5.686;2023-02-17T03:48:19;25.17;;;13.00;;
48534;SDS011;34323;52.022;5.686;2023-02-17T03:50:44;23.38;;;13.75;;
48534;SDS011;34323;52.022;5.686;2023-02-17T03:53:10;23.23;;;13.07;;
48534;SDS011;34323;52.022;5.686;2023-02-17T03:55:36;21.23;;;12.40;;
48534;SDS011;34323;52.022;5.686;2023-02-17T03:58:01;25.13;;;12.95;;
48534;SDS011;34323;52.022;5.686;2023-02-17T04:00:27;26.42;;;12.77;;
48534;SDS011;34323;52.022;5.686;2023-02-17T04:02:53;19.25;;;12.30;;
48534;SDS011;34323;52.022;5.686;2023-02-17T04:05:20;23.83;;;13.65;;
48534;SDS011;34323;52.022;5.686;2023-02-17T04:07:46;26.88;;;13.35;;
48534;SDS011;34323;52.022;5.686;2023-02-17T04:10:12;22.70;;;12.43;;
48534;SDS011;34323;52.022;5.686;2023-02-17T04:12:38;22.52;;;11.23;;
48534;SDS011;34323;52.022;5.686;2023-02-17T04:15:03;19.92;;;10.70;;
48534;SDS011;34323;52.022;5.686;2023-02-17T04:17:29;23.48;;;11.50;;
48534;SDS011;34323;52.022;5.686;2023-02-17T04:19:55;22.25;;;11.73;;
48534;SDS011;34323;52.022;5.686;2023-02-17T04:22:21;19.77;;;11.80;;
48534;SDS011;34323;52.022;5.686;2023-02-17T04:24:46;27.80;;;13.23;;
48534;SDS011;34323;52.022;5.686;2023-02-17T04:27:12;22.38;;;12.40;;
48534;SDS011;34323;52.022;5.686;2023-02-17T04:29:37;22.95;;;12.02;;
48534;SDS011;34323;52.022;5.686;2023-02-17T04:32:03;23.13;;;12.43;;
48534;SDS011;34323;52.022;5.686;2023-02-17T04:34:28;21.83;;;12.27;;
48534;SDS011;34323;52.022;5.686;2023-02-17T04:36:54;21.50;;;11.95;;
48534;SDS011;34323;52.022;5.686;2023-02-17T04:39:20;23.77;;;11.38;;
48534;SDS011;34323;52.022;5.686;2023-02-17T04:41:45;22.42;;;11.85;;
48534;SDS011;34323;52.022;5.686;2023-02-17T04:44:11;22.55;;;12.20;;
48534;SDS011;34323;52.022;5.686;2023-02-17T04:46:37;20.45;;;11.35;;
48534;SDS011;34323;52.022;5.686;2023-02-17T04:49:02;26.25;;;11.70;;
48534;SDS011;34323;52.022;5.686;2023-02-17T04:51:28;23.58;;;12.68;;
48534;SDS011;34323;52.022;5.686;2023-02-17T04:53:54;24.13;;;11.68;;
48534;SDS011;34323;52.022;5.686;2023-02-17T04:56:20;20.98;;;12.65;;
48534;SDS011;34323;52.022;5.686;2023-02-17T04:58:45;22.73;;;11.90;;
48534;SDS011;34323;52.022;5.686;2023-02-17T05:01:11;20.83;;;11.98;;
48534;SDS011;34323;52.022;5.686;2023-02-17T05:03:36;25.38;;;12.35;;
48534;SDS011;34323;52.022;5.686;2023-02-17T05:06:02;27.50;;;12.02;;
48534;SDS011;34323;52.022;5.686;2023-02-17T05:08:28;21.88;;;12.07;;
48534;SDS011;34323;52.022;5.686;2023-02-17T05:10:53;22.63;;;12.57;;
48534;SDS011;34323;52.022;5.686;2023-02-17T05:13:19;25.33;;;12.35;;
48534;SDS011;34323;52.022;5.686;2023-02-17T05:15:45;24.52;;;12.80;;
48534;SDS011;34323;52.022;5.686;2023-02-17T05:18:11;23.27;;;12.30;;
48534;SDS011;34323;52.022;5.686;2023-02-17T05:20:37;23.60;;;13.60;;
48534;SDS011;34323;52.022;5.686;2023-02-17T05:23:03;24.00;;;13.48;;
48534;SDS011;34323;52.022;5.686;2023-02-17T05:25:29;25.55;;;12.93;;
48534;SDS011;34323;52.022;5.686;2023-02-17T05:27:55;26.42;;;13.23;;
48534;SDS011;34323;52.022;5.686;2023-02-17T05:30:20;27.70;;;14.57;;
48534;SDS011;34323;52.022;5.686;2023-02-17T05:32:46;23.50;;;13.32;;
48534;SDS011;34323;52.022;5.686;2023-02-17T05:35:12;25.83;;;14.25;;
48534;SDS011;34323;52.022;5.686;2023-02-17T05:37:37;31.27;;;13.68;;
48534;SDS011;34323;52.022;5.686;2023-02-17T05:40:03;24.30;;;13.00;;
48534;SDS011;34323;52.022;5.686;2023-02-17T05:42:29;32.63;;;14.38;;
48534;SDS011;34323;52.022;5.686;2023-02-17T05:44:55;25.63;;;13.38;;
48534;SDS011;34323;52.022;5.686;2023-02-17T05:47:21;28.08;;;14.02;;
48534;SDS011;34323;52.022;5.686;2023-02-17T05:49:47;28.85;;;12.95;;
48534;SDS011;34323;52.022;5.686;2023-02-17T05:52:13;24.25;;;12.73;;
48534;SDS011;34323;52.022;5.686;2023-02-17T05:54:38;22.95;;;12.45;;
48534;SDS011;34323;52.022;5.686;2023-02-17T05:57:04;23.98;;;12.43;;
48534;SDS011;34323;52.022;5.686;2023-02-17T05:59:30;25.98;;;13.18;;
48534;SDS011;34323;52.022;5.686;2023-02-17T06:01:55;24.48;;;13.52;;
48534;SDS011;34323;52.022;5.686;2023-02-17T06:04:21;25.67;;;13.80;;
48534;SDS011;34323;52.022;5.686;2023-02-17T06:06:46;23.98;;;11.00;;
48534;SDS011;34323;52.022;5.686;2023-02-17T06:09:12;27.05;;;11.88;;
48534;SDS011;34323;52.022;5.686;2023-02-17T06:11:38;24.45;;;11.10;;
48534;SDS011;34323;52.022;5.686;2023-02-17T06:14:04;21.00;;;11.05;;
48534;SDS011;34323;52.022;5.686;2023-02-17T06:16:29;19.95;;;10.18;;
48534;SDS011;34323;52.022;5.686;2023-02-17T06:18:55;20.35;;;10.68;;
48534;SDS011;34323;52.022;5.686;2023-02-17T06:21:20;25.15;;;11.60;;
48534;SDS011;34323;52.022;5.686;2023-02-17T06:23:46;22.38;;;10.27;;
48534;SDS011;34323;52.022;5.686;2023-02-17T06:26:12;20.88;;;11.27;;
48534;SDS011;34323;52.022;5.686;2023-02-17T06:28:38;27.65;;;12.85;;
48534;SDS011;34323;52.022;5.686;2023-02-17T06:31:04;28.75;;;13.40;;
48534;SDS011;34323;52.022;5.686;2023-02-17T06:33:29;28.02;;;13.32;;
48534;SDS011;34323;52.022;5.686;2023-02-17T06:35:55;30.23;;;13.00;;
48534;SDS011;34323;52.022;5.686;2023-02-17T06:38:20;24.77;;;11.43;;
48534;SDS011;34323;52.022;5.686;2023-02-17T06:40:46;27.77;;;12.00;;
48534;SDS011;34323;52.022;5.686;2023-02-17T06:43:11;26.50;;;14.15;;
48534;SDS011;34323;52.022;5.686;2023-02-17T06:45:37;28.27;;;13.82;;
48534;SDS011;34323;52.022;5.686;2023-02-17T06:48:03;24.67;;;11.93;;
48534;SDS011;34323;52.022;5.686;2023-02-17T06:50:28;35.92;;;13.98;;
48534;SDS011;34323;52.022;5.686;2023-02-17T06:52:54;25.02;;;13.52;;
48534;SDS011;34323;52.022;5.686;2023-02-17T06:55:19;31.13;;;13.68;;
48534;SDS011;34323;52.022;5.686;2023-02-17T06:57:45;26.65;;;12.77;;
48534;SDS011;34323;52.022;5.686;2023-02-17T07:00:11;27.63;;;12.73;;
48534;SDS011;34323;52.022;5.686;2023-02-17T07:02:37;25.75;;;13.65;;
48534;SDS011;34323;52.022;5.686;2023-02-17T07:05:03;28.42;;;13.25;;
48534;SDS011;34323;52.022;5.686;2023-02-17T07:07:29;24.30;;;12.75;;
48534;SDS011;34323;52.022;5.686;2023-02-17T07:09:54;24.77;;;13.23;;
48534;SDS011;34323;52.022;5.686;2023-02-17T07:12:20;27.45;;;12.35;;
48534;SDS011;34323;52.022;5.686;2023-02-17T07:14:45;25.35;;;13.77;;
48534;SDS011;34323;52.022;5.686;2023-02-17T07:17:11;24.95;;;11.88;;
48534;SDS011;34323;52.022;5.686;2023-02-17T07:19:37;26.15;;;11.82;;
48534;SDS011;34323;52.022;5.686;2023-02-17T07:22:02;28.08;;;12.18;;
48534;SDS011;34323;52.022;5.686;2023-02-17T07:24:28;27.92;;;12.93;;
48534;SDS011;34323;52.022;5.686;2023-02-17T07:26:53;23.63;;;14.02;;
48534;SDS011;34323;52.022;5.686;2023-02-17T07:29:20;27.08;;;12.23;;
48534;SDS011;34323;52.022;5.686;2023-02-17T07:31:46;22.70;;;11.98;;
48534;SDS011;34323;52.022;5.686;2023-02-17T07:34:12;23.67;;;11.93;;
48534;SDS011;34323;52.022;5.686;2023-02-17T07:36:37;20.40;;;11.85;;
48534;SDS011;34323;52.022;5.686;2023-02-17T07:39:03;20.85;;;11.57;;
48534;SDS011;34323;52.022;5.686;2023-02-17T07:41:29;25.65;;;11.75;;
48534;SDS011;34323;52.022;5.686;2023-02-17T07:43:57;17.33;;;10.60;;
48534;SDS011;34323;52.022;5.686;2023-02-17T07:46:23;20.73;;;11.35;;
48534;SDS011;34323;52.022;5.686;2023-02-17T07:48:49;21.65;;;10.98;;
48534;SDS011;34323;52.022;5.686;2023-02-17T07:51:19;19.48;;;10.25;;
48534;SDS011;34323;52.022;5.686;2023-02-17T07:53:46;19.77;;;11.00;;
48534;SDS011;34323;52.022;5.686;2023-02-17T07:56:12;19.92;;;11.85;;
48534;SDS011;34323;52.022;5.686;2023-02-17T07:58:40;19.58;;;9.25;;
48534;SDS011;34323;52.022;5.686;2023-02-17T08:01:11;17.23;;;11.13;;
48534;SDS011;34323;52.022;5.686;2023-02-17T08:03:38;18.70;;;10.13;;
48534;SDS011;34323;52.022;5.686;2023-02-17T08:06:11;15.18;;;8.85;;
48534;SDS011;34323;52.022;5.686;2023-02-17T08:08:38;21.65;;;9.65;;
48534;SDS011;34323;52.022;5.686;2023-02-17T08:11:23;21.52;;;10.90;;
48534;SDS011;34323;52.022;5.686;2023-02-17T08:14:08;18.15;;;9.75;;
48534;SDS011;34323;52.022;5.686;2023-02-17T08:16:33;20.45;;;11.13;;
48534;SDS011;34323;52.022;5.686;2023-02-17T08:18:59;17.80;;;9.43;;
48534;SDS011;34323;52.022;5.686;2023-02-17T08:21:25;15.00;;;8.52;;
48534;SDS011;34323;52.022;5.686;2023-02-17T08:23:51;16.73;;;8.45;;
48534;SDS011;34323;52.022;5.686;2023-02-17T08:26:17;16.05;;;9.90;;
48534;SDS011;34323;52.022;5.686;2023-02-17T08:28:43;16.17;;;8.98;;
48534;SDS011;34323;52.022;5.686;2023-02-17T08:34:06;15.35;;;9.07;;
48534;SDS011;34323;52.022;5.686;2023-02-17T08:36:33;15.05;;;9.30;;
48534;SDS011;34323;52.022;5.686;2023-02-17T08:39:01;19.10;;;9.55;;
48534;SDS011;34323;52.022;5.686;2023-02-17T08:41:30;17.35;;;9.40;;
48534;SDS011;34323;52.022;5.686;2023-02-17T08:43:58;18.83;;;9.43;;
48534;SDS011;34323;52.022;5.686;2023-02-17T08:46:25;16.88;;;8.98;;
48534;SDS011;34323;52.022;5.686;2023-02-17T08:48:51;13.45;;;8.85;;
48534;SDS011;34323;52.022;5.686;2023-02-17T08:51:18;21.35;;;9.00;;
48534;SDS011;34323;52.022;5.686;2023-02-17T08:53:50;12.48;;;7.47;;
48534;SDS011;34323;52.022;5.686;2023-02-17T08:56:18;12.70;;;8.23;;
48534;SDS011;34323;52.022;5.686;2023-02-17T08:58:44;17.85;;;8.52;;
48534;SDS011;34323;52.022;5.686;2023-02-17T09:01:10;12.13;;;7.97;;
48534;SDS011;34323;52.022;5.686;2023-02-17T09:03:36;13.95;;;8.38;;
48534;SDS011;34323;52.022;5.686;2023-02-17T09:06:02;13.23;;;7.25;;
48534;SDS011;34323;52.022;5.686;2023-02-17T09:08:29;12.40;;;7.15;;
48534;SDS011;34323;52.022;5.686;2023-02-17T09:10:54;12.77;;;7.70;;
48534;SDS011;34323;52.022;5.686;2023-02-17T09:13:20;17.05;;;7.82;;
48534;SDS011;34323;52.022;5.686;2023-02-17T09:15:45;13.05;;;7.93;;
48534;SDS011;34323;52.022;5.686;2023-02-17T09:18:11;11.07;;;6.55;;
48534;SDS011;34323;52.022;5.686;2023-02-17T09:20:37;10.13;;;6.57;;
48534;SDS011;34323;52.022;5.686;2023-02-17T09:23:03;11.00;;;6.93;;
48534;SDS011;34323;52.022;5.686;2023-02-17T09:25:30;8.65;;;5.97;;
48534;SDS011;34323;52.022;5.686;2023-02-17T09:27:55;10.95;;;7.35;;
48534;SDS011;34323;52.022;5.686;2023-02-17T09:30:21;12.55;;;6.55;;
48534;SDS011;34323;52.022;5.686;2023-02-17T09:32:46;10.27;;;6.45;;
48534;SDS011;34323;52.022;5.686;2023-02-17T09:35:13;11.90;;;6.55;;
48534;SDS011;34323;52.022;5.686;2023-02-17T09:37:39;13.10;;;7.38;;
48534;SDS011;34323;52.022;5.686;2023-02-17T09:40:05;9.80;;;6.88;;
48534;SDS011;34323;52.022;5.686;2023-02-17T09:42:33;12.27;;;6.55;;
48534;SDS011;34323;52.022;5.686;2023-02-17T09:45:04;9.57;;;6.20;;
48534;SDS011;34323;52.022;5.686;2023-02-17T09:47:41;9.73;;;6.05;;
48534;SDS011;34323;52.022;5.686;2023-02-17T09:50:14;11.48;;;6.13;;
48534;SDS011;34323;52.022;5.686;2023-02-17T09:55:19;8.25;;;5.82;;
48534;SDS011;34323;52.022;5.686;2023-02-17T10:00:40;11.88;;;5.82;;
48534;SDS011;34323;52.022;5.686;2023-02-17T10:03:26;8.63;;;5.75;;
48534;SDS011;34323;52.022;5.686;2023-02-17T10:06:07;11.00;;;6.75;;
48534;SDS011;34323;52.022;5.686;2023-02-17T10:11:23;11.27;;;6.47;;
48534;SDS011;34323;52.022;5.686;2023-02-17T10:13:56;15.48;;;6.25;;
48534;SDS011;34323;52.022;5.686;2023-02-17T10:16:27;12.45;;;5.82;;
48534;SDS011;34323;52.022;5.686;2023-02-17T10:19:00;8.63;;;5.50;;
48534;SDS011;34323;52.022;5.686;2023-02-17T10:21:41;8.80;;;5.35;;
48534;SDS011;34323;52.022;5.686;2023-02-17T10:24:12;9.10;;;6.13;;
48534;SDS011;34323;52.022;5.686;2023-02-17T10:26:59;12.73;;;5.65;;
48534;SDS011;34323;52.022;5.686;2023-02-17T10:29:55;9.88;;;5.60;;
48534;SDS011;34323;52.022;5.686;2023-02-17T10:32:42;8.13;;;5.07;;
48534;SDS011;34323;52.022;5.686;2023-02-17T10:40:44;9.13;;;5.20;;
48534;SDS011;34323;52.022;5.686;2023-02-17T10:43:14;8.48;;;5.00;;
48534;SDS011;34323;52.022;5.686;2023-02-17T10:45:46;11.43;;;5.85;;
48534;SDS011;34323;52.022;5.686;2023-02-17T10:48:32;8.85;;;4.82;;
48534;SDS011;34323;52.022;5.686;2023-02-17T10:50:59;9.02;;;5.53;;
48534;SDS011;34323;52.022;5.686;2023-02-17T10:53:30;9.27;;;5.43;;
48534;SDS011;34323;52.022;5.686;2023-02-17T11:01:10;7.38;;;4.65;;
48534;SDS011;34323;52.022;5.686;2023-02-17T11:03:37;10.35;;;6.07;;
48534;SDS011;34323;52.022;5.686;2023-02-17T11:06:17;10.95;;;5.60;;
48534;SDS011;34323;52.022;5.686;2023-02-17T11:11:16;11.43;;;5.43;;
48534;SDS011;34323;52.022;5.686;2023-02-17T11:13:54;7.90;;;4.22;;
48534;SDS011;34323;52.022;5.686;2023-02-17T11:16:26;10.32;;;5.85;;
48534;SDS011;34323;52.022;5.686;2023-02-17T11:18:56;11.45;;;5.40;;
48534;SDS011;34323;52.022;5.686;2023-02-17T11:21:22;9.65;;;5.28;;
48534;SDS011;34323;52.022;5.686;2023-02-17T11:23:48;8.13;;;5.28;;
48534;SDS011;34323;52.022;5.686;2023-02-17T11:26:22;9.30;;;5.22;;
48534;SDS011;34323;52.022;5.686;2023-02-17T11:28:49;10.88;;;5.93;;
48534;SDS011;34323;52.022;5.686;2023-02-17T11:31:26;10.07;;;5.35;;
48534;SDS011;34323;52.022;5.686;2023-02-17T11:33:53;11.43;;;5.75;;
48534;SDS011;34323;52.022;5.686;2023-02-17T11:36:23;9.18;;;6.15;;
48534;SDS011;34323;52.022;5.686;2023-02-17T11:38:53;11.18;;;6.10;;
48534;SDS011;34323;52.022;5.686;2023-02-17T11:41:19;10.50;;;6.13;;
48534;SDS011;34323;52.022;5.686;2023-02-17T11:43:58;13.50;;;6.85;;
48534;SDS011;34323;52.022;5.686;2023-02-17T11:49:43;15.52;;;6.35;;
48534;SDS011;34323;52.022;5.686;2023-02-17T12:03:08;15.98;;;9.32;;
48534;SDS011;34323;52.022;5.686;2023-02-17T12:05:54;13.50;;;7.43;;
48534;SDS011;34323;52.022;5.686;2023-02-17T12:08:48;13.85;;;7.80;;
48534;SDS011;34323;52.022;5.686;2023-02-17T12:14:31;11.45;;;7.38;;
48534;SDS011;34323;52.022;5.686;2023-02-17T12:19:33;12.82;;;6.78;;
48534;SDS011;34323;52.022;5.686;2023-02-17T12:24:55;11.27;;;6.80;;
48534;SDS011;34323;52.022;5.686;2023-02-17T12:27:37;18.92;;;7.95;;
48534;SDS011;34323;52.022;5.686;2023-02-17T12:35:45;12.05;;;5.72;;
48534;SDS011;34323;52.022;5.686;2023-02-17T12:38:17;12.30;;;7.03;;
48534;SDS011;34323;52.022;5.686;2023-02-17T12:40:54;16.38;;;6.20;;
48534;SDS011;34323;52.022;5.686;2023-02-17T12:43:31;13.13;;;6.57;;
48534;SDS011;34323;52.022;5.686;2023-02-17T12:46:03;10.77;;;6.80;;
48534;SDS011;34323;52.022;5.686;2023-02-17T12:51:10;12.90;;;5.72;;
48534;SDS011;34323;52.022;5.686;2023-02-17T12:53:45;15.50;;;6.65;;
48534;SDS011;34323;52.022;5.686;2023-02-17T12:56:21;12.43;;;6.43;;
48534;SDS011;34323;52.022;5.686;2023-02-17T12:58:48;12.00;;;6.43;;
48534;SDS011;34323;52.022;5.686;2023-02-17T13:01:15;14.18;;;6.65;;
48534;SDS011;34323;52.022;5.686;2023-02-17T13:03:43;17.40;;;7.10;;
48534;SDS011;34323;52.022;5.686;2023-02-17T13:06:15;14.40;;;6.30;;
48534;SDS011;34323;52.022;5.686;2023-02-17T13:11:36;11.23;;;5.63;;
48534;SDS011;34323;52.022;5.686;2023-02-17T13:14:19;15.07;;;5.32;;
48534;SDS011;34323;52.022;5.686;2023-02-17T13:16:48;10.43;;;4.85;;
48534;SDS011;34323;52.022;5.686;2023-02-17T13:19:14;12.55;;;5.55;;
48534;SDS011;34323;52.022;5.686;2023-02-17T13:21:53;12.73;;;5.20;;
48534;SDS011;34323;52.022;5.686;2023-02-17T13:24:36;12.93;;;5.45;;
48534;SDS011;34323;52.022;5.686;2023-02-17T13:27:10;14.50;;;5.78;;
48534;SDS011;34323;52.022;5.686;2023-02-17T13:29:57;23.65;;;5.95;;
48534;SDS011;34323;52.022;5.686;2023-02-17T13:33:28;14.65;;;5.57;;
48534;SDS011;34323;52.022;5.686;2023-02-17T13:35:44;13.40;;;6.00;;
48534;SDS011;34323;52.022;5.686;2023-02-17T13:38:10;14.30;;;6.57;;
48534;SDS011;34323;52.022;5.686;2023-02-17T13:40:37;13.90;;;6.28;;
48534;SDS011;34323;52.022;5.686;2023-02-17T13:43:16;13.15;;;6.18;;
48534;SDS011;34323;52.022;5.686;2023-02-17T13:45:45;17.08;;;5.95;;
48534;SDS011;34323;52.022;5.686;2023-02-17T13:50:45;17.13;;;7.13;;
48534;SDS011;34323;52.022;5.686;2023-02-17T13:53:23;15.27;;;5.55;;
48534;SDS011;34323;52.022;5.686;2023-02-17T13:55:52;11.88;;;5.22;;
48534;SDS011;34323;52.022;5.686;2023-02-17T13:58:22;13.20;;;5.75;;
48534;SDS011;34323;52.022;5.686;2023-02-17T14:00:54;14.73;;;5.85;;
48534;SDS011;34323;52.022;5.686;2023-02-17T14:03:22;11.68;;;5.50;;
48534;SDS011;34323;52.022;5.686;2023-02-17T14:05:51;12.23;;;5.78;;
48534;SDS011;34323;52.022;5.686;2023-02-17T14:08:25;15.05;;;6.53;;
48534;SDS011;34323;52.022;5.686;2023-02-17T14:11:07;15.05;;;5.15;;
48534;SDS011;34323;52.022;5.686;2023-02-17T14:13:44;17.65;;;5.45;;
48534;SDS011;34323;52.022;5.686;2023-02-17T14:16:28;12.05;;;5.35;;
48534;SDS011;34323;52.022;5.686;2023-02-17T14:19:14;15.40;;;6.00;;
48534;SDS011;34323;52.022;5.686;2023-02-17T14:22:03;15.25;;;5.60;;
48534;SDS011;34323;52.022;5.686;2023-02-17T14:24:30;12.60;;;5.28;;
48534;SDS011;34323;52.022;5.686;2023-02-17T14:27:01;10.38;;;5.25;;
48534;SDS011;34323;52.022;5.686;2023-02-17T14:29:39;14.80;;;5.37;;
48534;SDS011;34323;52.022;5.686;2023-02-17T14:34:52;12.98;;;5.40;;
48534;SDS011;34323;52.022;5.686;2023-02-17T14:37:18;19.05;;;5.95;;
48534;SDS011;34323;52.022;5.686;2023-02-17T14:39:48;11.48;;;5.35;;
48534;SDS011;34323;52.022;5.686;2023-02-17T14:42:14;11.15;;;4.80;;
48534;SDS011;34323;52.022;5.686;2023-02-17T14:44:39;13.95;;;5.57;;
48534;SDS011;34323;52.022;5.686;2023-02-17T14:47:06;15.52;;;5.63;;
48534;SDS011;34323;52.022;5.686;2023-02-17T14:49:32;13.63;;;5.28;;
48534;SDS011;34323;52.022;5.686;2023-02-17T14:51:58;12.98;;;4.93;;
48534;SDS011;34323;52.022;5.686;2023-02-17T14:54:24;11.05;;;4.63;;
48534;SDS011;34323;52.022;5.686;2023-02-17T14:56:56;12.43;;;5.68;;
48534;SDS011;34323;52.022;5.686;2023-02-17T14:59:27;20.35;;;6.28;;
48534;SDS011;34323;52.022;5.686;2023-02-17T15:01:52;17.35;;;6.03;;
48534;SDS011;34323;52.022;5.686;2023-02-17T15:04:19;17.08;;;5.70;;
48534;SDS011;34323;52.022;5.686;2023-02-17T15:06:46;15.45;;;4.85;;
48534;SDS011;34323;52.022;5.686;2023-02-17T15:09:17;16.55;;;5.57;;
48534;SDS011;34323;52.022;5.686;2023-02-17T15:11:45;20.73;;;6.47;;
48534;SDS011;34323;52.022;5.686;2023-02-17T15:14:16;15.07;;;5.40;;
48534;SDS011;34323;52.022;5.686;2023-02-17T15:16:43;13.63;;;5.82;;
48534;SDS011;34323;52.022;5.686;2023-02-17T15:19:10;12.48;;;5.85;;
48534;SDS011;34323;52.022;5.686;2023-02-17T15:21:37;14.43;;;5.80;;
48534;SDS011;34323;52.022;5.686;2023-02-17T15:24:16;16.95;;;6.57;;
48534;SDS011;34323;52.022;5.686;2023-02-17T15:26:43;13.57;;;6.40;;
48534;SDS011;34323;52.022;5.686;2023-02-17T15:29:16;14.07;;;6.20;;
48534;SDS011;34323;52.022;5.686;2023-02-17T15:31:43;19.05;;;6.90;;
48534;SDS011;34323;52.022;5.686;2023-02-17T15:34:14;16.83;;;8.10;;
48534;SDS011;34323;52.022;5.686;2023-02-17T15:36:41;14.07;;;7.15;;
48534;SDS011;34323;52.022;5.686;2023-02-17T15:39:11;16.80;;;6.70;;
48534;SDS011;34323;52.022;5.686;2023-02-17T15:41:38;12.43;;;5.60;;
48534;SDS011;34323;52.022;5.686;2023-02-17T15:44:05;18.52;;;7.05;;
48534;SDS011;34323;52.022;5.686;2023-02-17T15:46:36;17.25;;;6.82;;
48534;SDS011;34323;52.022;5.686;2023-02-17T15:49:03;17.42;;;6.57;;
48534;SDS011;34323;52.022;5.686;2023-02-17T15:51:29;13.48;;;6.78;;
48534;SDS011;34323;52.022;5.686;2023-02-17T15:53:55;11.02;;;6.13;;
48534;SDS011;34323;52.022;5.686;2023-02-17T15:56:21;21.30;;;7.40;;
48534;SDS011;34323;52.022;5.686;2023-02-17T15:58:49;15.20;;;7.57;;
48534;SDS011;34323;52.022;5.686;2023-02-17T16:01:26;17.58;;;7.47;;
48534;SDS011;34323;52.022;5.686;2023-02-17T16:03:54;12.48;;;6.70;;
48534;SDS011;34323;52.022;5.686;2023-02-17T16:06:20;16.63;;;5.90;;
48534;SDS011;34323;52.022;5.686;2023-02-17T16:08:46;15.85;;;6.45;;